Carnival Glory — 3FPS9 — position and weather

sailwx.info

Track history (hours):
 
Tides and Currents Weather Stations Pressure Air Temp Water Temp Dewpoint Dewpoint Depression Visibility Wind Speed Wind Dir Waves Ship Positions

Carnival Glory

Operator: Carnival Cruise Lines

Last reported at 2017-Nov-22 04:00 UTC. Time now 2017-Nov-23 00:22 UTC.
Position N 16°42' W 087°00'.

Type: Passenger vessel. MMSI: 357659000.

Wind from 040 at 10 knots

Barometer 1011.8 mb
Air temperature 26.0 ° C
Dewpoint 23.1 ° C
Water temperature 25.0 ° C

Date/timePositionNaut miles runAvg speedWind from/ knotsBaromVisibWave heightAir tempDewpointWater temp
2017-Nov-22 04:00N 16°42' W 087°00'   040 / 101011.8 26.023.125.0
2017-Nov-19 00:15N 25°19' W 079°57'416.3
2017-Nov-19 00:00N 25°23' W 079°56'816.4
2017-Nov-18 23:30N 25°31' W 079°56'816.0
2017-Nov-18 23:00N 25°39' W 079°57'815.3
2017-Nov-18 22:30N 25°45' W 080°02'510.1
2017-Nov-18 22:00N 25°46' W 080°08'2 4.6
2017-Nov-18 21:29N 25°47' W 080°10'0 0.0
2017-Nov-18 20:59N 25°47' W 080°10'0 0.0
2017-Nov-18 20:29N 25°47' W 080°10'0 0.0
2017-Nov-18 19:59N 25°47' W 080°10'0 0.0
2017-Nov-18 19:29N 25°47' W 080°10'0 0.0
2017-Nov-18 18:59N 25°47' W 080°10'0 0.0
2017-Nov-18 18:23N 25°47' W 080°10'0 0.0
2017-Nov-18 17:59N 25°47' W 080°10'0 0.0
2017-Nov-18 17:20N 25°47' W 080°10'0 0.0
2017-Nov-18 16:59N 25°47' W 080°10'0 0.0
2017-Nov-18 16:26N 25°47' W 080°10'0 0.0
2017-Nov-18 15:59N 25°47' W 080°10'0 0.0
2017-Nov-18 15:26N 25°47' W 080°10'0 0.0
2017-Nov-18 14:59N 25°47' W 080°10'0 0.0
2017-Nov-18 14:29N 25°47' W 080°10'0 0.0
2017-Nov-18 13:59N 25°47' W 080°10'0 0.0
2017-Nov-18 13:26N 25°47' W 080°10'0 0.0
2017-Nov-18 12:56N 25°47' W 080°10'0 0.0
2017-Nov-18 12:26N 25°47' W 080°10'0 0.0
2017-Nov-18 11:56N 25°47' W 080°10'0 0.0
2017-Nov-18 11:29N 25°47' W 080°10'0 0.0
2017-Nov-18 11:00N 25°47' W 080°10'0 0.0
2017-Nov-18 10:30N 25°47' W 080°10'0 0.8
2017-Nov-18 10:00N 25°47' W 080°11'1 2.8
2017-Nov-18 09:30N 25°46' W 080°09'510.4
2017-Nov-18 09:00N 25°46' W 080°03'4 8.7
2017-Nov-18 08:30N 25°48' W 079°59'5 9.4
2017-Nov-18 08:00N 25°51' W 079°55'510.0
2017-Nov-18 07:30N 25°53' W 079°50'510.4
2017-Nov-18 07:00N 25°56' W 079°45'510.8
2017-Nov-18 06:30N 25°59' W 079°40'511.0
2017-Nov-18 06:00N 26°02' W 079°35'611.3
2017-Nov-18 05:30N 26°05' W 079°29'8114.7
2017-Nov-18 00:00N 25°54' W 078°00'37417.8 030 / 241014.710.8 26.023.127.0
2017-Nov-17 03:00N 22°36' W 072°12'139 6.1 060 / 121009.910.8 26.024.628.0
2017-Nov-16 04:00N 20°24' W 071°24'89 3.5 080 / 101008.9 27.025.628.0
2017-Nov-15 03:00N 21°48' W 070°54'4113.7 220 / 51007.9 25.023.526.0
2017-Nov-15 00:00N 22°12' W 071°30'33716.1 070 / 151007.910.8 25.022.027.0
2017-Nov-14 03:00N 25°36' W 076°24'   050 / 201013.910.8 26.021.526.0
Track history (hours):
 
Tides and Currents Weather Stations Pressure Air Temp Water Temp Dewpoint Dewpoint Depression Visibility Wind Speed Wind Dir Waves Ship Positions

Carnival Glory

Operator: Carnival Cruise Lines

Last reported at 2017-Nov-22 04:00 UTC. Time now 2017-Nov-23 00:22 UTC.
Position N 16°42' W 087°00'.

Type: Passenger vessel. MMSI: 357659000.

Wind from 040 at 10 knots

Barometer 1011.8 mb
Air temperature 26.0 ° C
Dewpoint 23.1 ° C
Water temperature 25.0 ° C

Date/timePositionNaut miles runAvg speedWind from/ knotsBaromVisibWave heightAir tempDewpointWater temp
2017-Nov-22 04:00N 16°42' W 087°00'   040 / 101011.8 26.023.125.0
2017-Nov-19 00:15N 25°19' W 079°57'416.3
2017-Nov-19 00:00N 25°23' W 079°56'816.4
2017-Nov-18 23:30N 25°31' W 079°56'816.0
2017-Nov-18 23:00N 25°39' W 079°57'815.3
2017-Nov-18 22:30N 25°45' W 080°02'510.1
2017-Nov-18 22:00N 25°46' W 080°08'2 4.6
2017-Nov-18 21:29N 25°47' W 080°10'0 0.0
2017-Nov-18 20:59N 25°47' W 080°10'0 0.0
2017-Nov-18 20:29N 25°47' W 080°10'0 0.0
2017-Nov-18 19:59N 25°47' W 080°10'0 0.0
2017-Nov-18 19:29N 25°47' W 080°10'0 0.0
2017-Nov-18 18:59N 25°47' W 080°10'0 0.0
2017-Nov-18 18:23N 25°47' W 080°10'0 0.0
2017-Nov-18 17:59N 25°47' W 080°10'0 0.0
2017-Nov-18 17:20N 25°47' W 080°10'0 0.0
2017-Nov-18 16:59N 25°47' W 080°10'0 0.0
2017-Nov-18 16:26N 25°47' W 080°10'0 0.0
2017-Nov-18 15:59N 25°47' W 080°10'0 0.0
2017-Nov-18 15:26N 25°47' W 080°10'0 0.0
2017-Nov-18 14:59N 25°47' W 080°10'0 0.0
2017-Nov-18 14:29N 25°47' W 080°10'0 0.0
2017-Nov-18 13:59N 25°47' W 080°10'0 0.0
2017-Nov-18 13:26N 25°47' W 080°10'0 0.0
2017-Nov-18 12:56N 25°47' W 080°10'0 0.0
2017-Nov-18 12:26N 25°47' W 080°10'0 0.0
2017-Nov-18 11:56N 25°47' W 080°10'0 0.0
2017-Nov-18 11:29N 25°47' W 080°10'0 0.0
2017-Nov-18 11:00N 25°47' W 080°10'0 0.0
2017-Nov-18 10:30N 25°47' W 080°10'0 0.8
2017-Nov-18 10:00N 25°47' W 080°11'1 2.8
2017-Nov-18 09:30N 25°46' W 080°09'510.4
2017-Nov-18 09:00N 25°46' W 080°03'4 8.7
2017-Nov-18 08:30N 25°48' W 079°59'5 9.4
2017-Nov-18 08:00N 25°51' W 079°55'510.0
2017-Nov-18 07:30N 25°53' W 079°50'510.4
2017-Nov-18 07:00N 25°56' W 079°45'510.8
2017-Nov-18 06:30N 25°59' W 079°40'511.0
2017-Nov-18 06:00N 26°02' W 079°35'611.3
2017-Nov-18 05:30N 26°05' W 079°29'8114.7
2017-Nov-18 00:00N 25°54' W 078°00'37417.8 030 / 241014.710.8 26.023.127.0
2017-Nov-17 03:00N 22°36' W 072°12'139 6.1 060 / 121009.910.8 26.024.628.0
2017-Nov-16 04:00N 20°24' W 071°24'89 3.5 080 / 101008.9 27.025.628.0
2017-Nov-15 03:00N 21°48' W 070°54'4113.7 220 / 51007.9 25.023.526.0
2017-Nov-15 00:00N 22°12' W 071°30'33716.1 070 / 151007.910.8 25.022.027.0
2017-Nov-14 03:00N 25°36' W 076°24'   050 / 201013.910.8 26.021.526.0

Dump ship's entire track history